sensor_id;sensor_type;location;lat;lon;timestamp;temperature;humidity
66582;SHT31;53438;48.898;2.308;2023-02-01T00:01:17;8.70;85.22
66582;SHT31;53438;48.898;2.308;2023-02-01T00:03:42;8.73;85.25
66582;SHT31;53438;48.898;2.308;2023-02-01T00:06:08;8.74;85.06
66582;SHT31;53438;48.898;2.308;2023-02-01T00:08:33;8.74;85.24
66582;SHT31;53438;48.898;2.308;2023-02-01T00:11:05;8.73;85.30
66582;SHT31;53438;48.898;2.308;2023-02-01T00:13:32;8.76;85.06
66582;SHT31;53438;48.898;2.308;2023-02-01T00:16:28;8.74;84.97
66582;SHT31;53438;48.898;2.308;2023-02-01T00:19:02;8.74;84.96
66582;SHT31;53438;48.898;2.308;2023-02-01T00:21:28;8.71;84.86
66582;SHT31;53438;48.898;2.308;2023-02-01T00:23:54;8.70;84.90
66582;SHT31;53438;48.898;2.308;2023-02-01T00:28:53;8.71;84.76
66582;SHT31;53438;48.898;2.308;2023-02-01T00:31:18;8.70;84.68
66582;SHT31;53438;48.898;2.308;2023-02-01T00:33:46;8.68;84.61
66582;SHT31;53438;48.898;2.308;2023-02-01T00:36:12;8.68;84.37
66582;SHT31;53438;48.898;2.308;2023-02-01T00:38:38;8.71;84.36
66582;SHT31;53438;48.898;2.308;2023-02-01T00:43:31;8.70;84.15
66582;SHT31;53438;48.898;2.308;2023-02-01T00:45:56;8.60;83.91
66582;SHT31;53438;48.898;2.308;2023-02-01T00:48:22;8.63;84.03
66582;SHT31;53438;48.898;2.308;2023-02-01T00:50:47;8.59;84.07
66582;SHT31;53438;48.898;2.308;2023-02-01T00:53:12;8.56;83.96
66582;SHT31;53438;48.898;2.308;2023-02-01T00:55:39;8.52;83.56
66582;SHT31;53438;48.898;2.308;2023-02-01T00:58:05;8.53;83.55
66582;SHT31;53438;48.898;2.308;2023-02-01T04:02:22;8.42;73.70
66582;SHT31;53438;48.898;2.308;2023-02-01T04:04:48;8.42;72.82
66582;SHT31;53438;48.898;2.308;2023-02-01T04:07:13;8.46;72.48
66582;SHT31;53438;48.898;2.308;2023-02-01T04:09:38;8.45;72.53
66582;SHT31;53438;48.898;2.308;2023-02-01T04:12:04;8.45;72.41
66582;SHT31;53438;48.898;2.308;2023-02-01T04:14:29;8.47;72.50
66582;SHT31;53438;48.898;2.308;2023-02-01T04:16:55;8.47;71.68
66582;SHT31;53438;48.898;2.308;2023-02-01T04:19:20;8.43;71.44
66582;SHT31;53438;48.898;2.308;2023-02-01T04:21:45;8.40;71.26
66582;SHT31;53438;48.898;2.308;2023-02-01T04:24:11;8.42;71.27
66582;SHT31;53438;48.898;2.308;2023-02-01T04:26:36;8.43;71.86
66582;SHT31;53438;48.898;2.308;2023-02-01T04:29:01;8.39;71.56
66582;SHT31;53438;48.898;2.308;2023-02-01T04:31:27;8.39;71.64
66582;SHT31;53438;48.898;2.308;2023-02-01T04:33:53;8.35;71.49
66582;SHT31;53438;48.898;2.308;2023-02-01T04:36:20;8.36;71.53
66582;SHT31;53438;48.898;2.308;2023-02-01T04:38:49;8.37;72.25
66582;SHT31;53438;48.898;2.308;2023-02-01T04:41:14;8.36;71.82
66582;SHT31;53438;48.898;2.308;2023-02-01T04:43:44;8.32;71.90
66582;SHT31;53438;48.898;2.308;2023-02-01T04:46:10;8.32;72.24
66582;SHT31;53438;48.898;2.308;2023-02-01T04:48:35;8.29;72.23
66582;SHT31;53438;48.898;2.308;2023-02-01T04:51:00;8.32;72.92
66582;SHT31;53438;48.898;2.308;2023-02-01T04:53:26;8.25;72.63
66582;SHT31;53438;48.898;2.308;2023-02-01T04:55:51;8.21;73.15
66582;SHT31;53438;48.898;2.308;2023-02-01T04:58:16;8.19;73.48
66582;SHT31;53438;48.898;2.308;2023-02-01T05:00:42;8.19;73.26
66582;SHT31;53438;48.898;2.308;2023-02-01T05:03:07;8.15;73.72
66582;SHT31;53438;48.898;2.308;2023-02-01T05:05:33;8.08;73.51
66582;SHT31;53438;48.898;2.308;2023-02-01T05:07:58;8.10;74.14
66582;SHT31;53438;48.898;2.308;2023-02-01T05:10:24;8.06;73.84
66582;SHT31;53438;48.898;2.308;2023-02-01T05:12:50;8.05;74.04
66582;SHT31;53438;48.898;2.308;2023-02-01T05:15:54;8.02;74.40
66582;SHT31;53438;48.898;2.308;2023-02-01T05:18:19;7.99;74.02
66582;SHT31;53438;48.898;2.308;2023-02-01T05:20:44;7.99;74.51
66582;SHT31;53438;48.898;2.308;2023-02-01T05:23:10;8.02;74.44
66582;SHT31;53438;48.898;2.308;2023-02-01T05:25:35;8.01;74.55
66582;SHT31;53438;48.898;2.308;2023-02-01T05:28:00;8.02;74.71
66582;SHT31;53438;48.898;2.308;2023-02-01T05:30:25;8.01;74.42
66582;SHT31;53438;48.898;2.308;2023-02-01T05:32:52;7.98;74.58
66582;SHT31;53438;48.898;2.308;2023-02-01T05:35:17;7.96;74.41
66582;SHT31;53438;48.898;2.308;2023-02-01T05:37:42;7.99;74.74
66582;SHT31;53438;48.898;2.308;2023-02-01T05:40:08;8.01;74.66
66582;SHT31;53438;48.898;2.308;2023-02-01T05:42:34;7.99;74.96
66582;SHT31;53438;48.898;2.308;2023-02-01T05:44:59;8.05;74.85
66582;SHT31;53438;48.898;2.308;2023-02-01T05:47:25;7.98;75.05
66582;SHT31;53438;48.898;2.308;2023-02-01T05:49:50;7.95;75.07
66582;SHT31;53438;48.898;2.308;2023-02-01T05:52:16;7.96;75.20
66582;SHT31;53438;48.898;2.308;2023-02-01T05:54:45;7.91;75.41
66582;SHT31;53438;48.898;2.308;2023-02-01T05:57:12;7.95;75.34
66582;SHT31;53438;48.898;2.308;2023-02-01T05:59:38;7.99;75.73
66582;SHT31;53438;48.898;2.308;2023-02-01T06:02:06;7.98;75.49
66582;SHT31;53438;48.898;2.308;2023-02-01T06:04:32;7.91;75.42
66582;SHT31;53438;48.898;2.308;2023-02-01T06:06:57;7.96;75.51
66582;SHT31;53438;48.898;2.308;2023-02-01T06:09:22;7.96;75.66
66582;SHT31;53438;48.898;2.308;2023-02-01T06:11:48;7.92;75.25
66582;SHT31;53438;48.898;2.308;2023-02-01T06:14:14;7.96;75.27
66582;SHT31;53438;48.898;2.308;2023-02-01T06:16:39;7.96;74.96
66582;SHT31;53438;48.898;2.308;2023-02-01T06:19:04;7.88;74.87
66582;SHT31;53438;48.898;2.308;2023-02-01T06:21:30;7.92;75.09
66582;SHT31;53438;48.898;2.308;2023-02-01T06:23:55;7.82;74.68
66582;SHT31;53438;48.898;2.308;2023-02-01T06:26:22;7.85;74.72
66582;SHT31;53438;48.898;2.308;2023-02-01T06:28:48;7.91;75.09
66582;SHT31;53438;48.898;2.308;2023-02-01T06:31:14;7.92;74.76
66582;SHT31;53438;48.898;2.308;2023-02-01T06:33:40;7.89;74.92
66582;SHT31;53438;48.898;2.308;2023-02-01T06:36:07;7.89;74.66
66582;SHT31;53438;48.898;2.308;2023-02-01T06:38:33;7.92;74.58
66582;SHT31;53438;48.898;2.308;2023-02-01T06:41:00;7.88;74.47
66582;SHT31;53438;48.898;2.308;2023-02-01T06:43:26;7.91;74.63
66582;SHT31;53438;48.898;2.308;2023-02-01T06:45:58;7.89;74.04
66582;SHT31;53438;48.898;2.308;2023-02-01T06:48:23;7.92;74.74
66582;SHT31;53438;48.898;2.308;2023-02-01T06:50:49;7.92;74.15
66582;SHT31;53438;48.898;2.308;2023-02-01T06:53:14;7.92;74.04
66582;SHT31;53438;48.898;2.308;2023-02-01T06:55:39;7.91;74.02
66582;SHT31;53438;48.898;2.308;2023-02-01T06:58:05;7.87;73.98
66582;SHT31;53438;48.898;2.308;2023-02-01T07:00:30;7.88;74.14
66582;SHT31;53438;48.898;2.308;2023-02-01T07:02:57;7.88;74.21
66582;SHT31;53438;48.898;2.308;2023-02-01T07:05:22;7.89;74.56
66582;SHT31;53438;48.898;2.308;2023-02-01T07:07:49;7.79;74.03
66582;SHT31;53438;48.898;2.308;2023-02-01T07:10:14;7.82;74.55
66582;SHT31;53438;48.898;2.308;2023-02-01T07:12:40;7.82;74.74
66582;SHT31;53438;48.898;2.308;2023-02-01T07:15:06;7.88;74.28
66582;SHT31;53438;48.898;2.308;2023-02-01T07:17:31;7.79;73.98
66582;SHT31;53438;48.898;2.308;2023-02-01T07:19:57;7.79;73.99
66582;SHT31;53438;48.898;2.308;2023-02-01T07:22:25;7.75;74.04
66582;SHT31;53438;48.898;2.308;2023-02-01T07:24:50;7.77;74.28
66582;SHT31;53438;48.898;2.308;2023-02-01T07:27:15;7.78;74.23
66582;SHT31;53438;48.898;2.308;2023-02-01T07:29:41;7.75;74.33
66582;SHT31;53438;48.898;2.308;2023-02-01T07:32:06;7.77;74.54
66582;SHT31;53438;48.898;2.308;2023-02-01T07:34:31;7.77;74.47
66582;SHT31;53438;48.898;2.308;2023-02-01T07:36:58;7.77;74.71
66582;SHT31;53438;48.898;2.308;2023-02-01T07:39:23;7.75;74.67
66582;SHT31;53438;48.898;2.308;2023-02-01T07:41:48;7.78;74.92
66582;SHT31;53438;48.898;2.308;2023-02-01T07:44:14;7.84;75.27
66582;SHT31;53438;48.898;2.308;2023-02-01T07:46:39;7.78;75.08
66582;SHT31;53438;48.898;2.308;2023-02-01T07:49:05;7.84;75.21
66582;SHT31;53438;48.898;2.308;2023-02-01T07:51:31;7.79;75.00
66582;SHT31;53438;48.898;2.308;2023-02-01T07:53:57;7.78;74.91
66582;SHT31;53438;48.898;2.308;2023-02-01T07:56:22;7.82;75.09
66582;SHT31;53438;48.898;2.308;2023-02-01T07:58:50;7.82;74.99
66582;SHT31;53438;48.898;2.308;2023-02-01T08:01:17;7.82;74.90
66582;SHT31;53438;48.898;2.308;2023-02-01T08:03:56;7.82;74.90
66582;SHT31;53438;48.898;2.308;2023-02-01T08:06:23;7.87;74.79
66582;SHT31;53438;48.898;2.308;2023-02-01T08:08:49;7.88;74.77
66582;SHT31;53438;48.898;2.308;2023-02-01T08:11:16;7.91;74.91
66582;SHT31;53438;48.898;2.308;2023-02-01T08:13:41;7.88;74.47
66582;SHT31;53438;48.898;2.308;2023-02-01T08:16:08;7.89;74.50
66582;SHT31;53438;48.898;2.308;2023-02-01T08:18:35;7.92;74.78
66582;SHT31;53438;48.898;2.308;2023-02-01T08:21:09;7.99;74.85
66582;SHT31;53438;48.898;2.308;2023-02-01T08:23:36;7.99;74.63
66582;SHT31;53438;48.898;2.308;2023-02-01T08:26:05;8.01;74.52
66582;SHT31;53438;48.898;2.308;2023-02-01T08:28:31;8.01;74.77
66582;SHT31;53438;48.898;2.308;2023-02-01T08:30:57;8.01;74.52
66582;SHT31;53438;48.898;2.308;2023-02-01T08:33:22;8.03;74.84
66582;SHT31;53438;48.898;2.308;2023-02-01T08:35:47;8.03;74.45
66582;SHT31;53438;48.898;2.308;2023-02-01T08:38:13;8.09;74.86
66582;SHT31;53438;48.898;2.308;2023-02-01T08:40:38;8.10;74.58
66582;SHT31;53438;48.898;2.308;2023-02-01T08:43:06;8.16;74.23
66582;SHT31;53438;48.898;2.308;2023-02-01T08:45:32;8.12;74.34
66582;SHT31;53438;48.898;2.308;2023-02-01T08:47:57;8.13;74.54
66582;SHT31;53438;48.898;2.308;2023-02-01T08:50:24;8.18;74.66
66582;SHT31;53438;48.898;2.308;2023-02-01T08:52:50;8.21;73.92
66582;SHT31;53438;48.898;2.308;2023-02-01T08:55:16;8.24;73.92
66582;SHT31;53438;48.898;2.308;2023-02-01T08:57:42;8.30;73.62
66582;SHT31;53438;48.898;2.308;2023-02-01T09:00:11;8.32;72.89
66582;SHT31;53438;48.898;2.308;2023-02-01T09:02:36;8.35;73.53
66582;SHT31;53438;48.898;2.308;2023-02-01T09:05:02;8.37;72.64
66582;SHT31;53438;48.898;2.308;2023-02-01T09:07:29;8.35;72.00
66582;SHT31;53438;48.898;2.308;2023-02-01T09:09:54;8.39;72.60
66582;SHT31;53438;48.898;2.308;2023-02-01T09:12:21;8.42;72.33
66582;SHT31;53438;48.898;2.308;2023-02-01T09:14:46;8.43;73.19
66582;SHT31;53438;48.898;2.308;2023-02-01T09:17:12;8.36;72.25
66582;SHT31;53438;48.898;2.308;2023-02-01T09:19:38;8.40;72.60
66582;SHT31;53438;48.898;2.308;2023-02-01T09:22:04;8.42;72.02
66582;SHT31;53438;48.898;2.308;2023-02-01T09:24:29;8.46;72.21
66582;SHT31;53438;48.898;2.308;2023-02-01T09:26:55;8.50;71.86
66582;SHT31;53438;48.898;2.308;2023-02-01T09:29:20;8.47;72.05
66582;SHT31;53438;48.898;2.308;2023-02-01T09:31:45;8.53;71.79
66582;SHT31;53438;48.898;2.308;2023-02-01T09:34:11;8.52;71.71
66582;SHT31;53438;48.898;2.308;2023-02-01T09:36:36;8.53;70.84
66582;SHT31;53438;48.898;2.308;2023-02-01T09:39:02;8.54;71.25
66582;SHT31;53438;48.898;2.308;2023-02-01T09:46:43;8.61;71.63
66582;SHT31;53438;48.898;2.308;2023-02-01T09:49:22;8.61;70.62
66582;SHT31;53438;48.898;2.308;2023-02-01T09:51:51;8.63;71.06
66582;SHT31;53438;48.898;2.308;2023-02-01T09:54:42;8.46;71.25
66582;SHT31;53438;48.898;2.308;2023-02-01T09:57:13;8.49;71.36
66582;SHT31;53438;48.898;2.308;2023-02-01T09:59:42;8.53;71.54
66582;SHT31;53438;48.898;2.308;2023-02-01T10:02:23;8.57;70.96
66582;SHT31;53438;48.898;2.308;2023-02-01T10:04:58;8.63;71.77
66582;SHT31;53438;48.898;2.308;2023-02-01T10:07:42;8.61;71.12
66582;SHT31;53438;48.898;2.308;2023-02-01T10:10:25;8.68;70.91
66582;SHT31;53438;48.898;2.308;2023-02-01T10:18:53;8.81;70.62
66582;SHT31;53438;48.898;2.308;2023-02-01T10:21:40;8.80;70.00
66582;SHT31;53438;48.898;2.308;2023-02-01T10:24:20;8.78;70.58
66582;SHT31;53438;48.898;2.308;2023-02-01T10:27:02;8.83;70.11
66582;SHT31;53438;48.898;2.308;2023-02-01T10:29:42;8.83;70.31
66582;SHT31;53438;48.898;2.308;2023-02-01T10:32:13;8.85;69.58
66582;SHT31;53438;48.898;2.308;2023-02-01T10:34:39;8.89;70.02
66582;SHT31;53438;48.898;2.308;2023-02-01T10:37:31;8.89;69.85
66582;SHT31;53438;48.898;2.308;2023-02-01T10:40:00;8.85;70.08
66582;SHT31;53438;48.898;2.308;2023-02-01T10:42:27;8.87;69.61
66582;SHT31;53438;48.898;2.308;2023-02-01T10:44:56;8.87;70.18
66582;SHT31;53438;48.898;2.308;2023-02-01T10:47:23;8.84;70.50
66582;SHT31;53438;48.898;2.308;2023-02-01T10:50:11;8.88;70.33
66582;SHT31;53438;48.898;2.308;2023-02-01T10:52:45;8.95;70.49
66582;SHT31;53438;48.898;2.308;2023-02-01T10:58:04;9.07;70.13
66582;SHT31;53438;48.898;2.308;2023-02-01T11:00:49;9.12;70.51
66582;SHT31;53438;48.898;2.308;2023-02-01T11:06:21;9.18;69.70
66582;SHT31;53438;48.898;2.308;2023-02-01T11:08:50;9.21;69.89
66582;SHT31;53438;48.898;2.308;2023-02-01T11:11:15;9.18;69.67
66582;SHT31;53438;48.898;2.308;2023-02-01T11:13:41;9.34;69.60
66582;SHT31;53438;48.898;2.308;2023-02-01T11:16:13;9.42;69.32
66582;SHT31;53438;48.898;2.308;2023-02-01T11:18:38;9.42;69.19
66582;SHT31;53438;48.898;2.308;2023-02-01T11:21:06;9.47;69.19
66582;SHT31;53438;48.898;2.308;2023-02-01T11:23:33;9.42;69.67
66582;SHT31;53438;48.898;2.308;2023-02-01T11:26:20;9.35;69.53
66582;SHT31;53438;48.898;2.308;2023-02-01T11:28:53;9.35;69.46
66582;SHT31;53438;48.898;2.308;2023-02-01T11:31:19;9.38;70.04
66582;SHT31;53438;48.898;2.308;2023-02-01T11:33:52;9.42;69.74
66582;SHT31;53438;48.898;2.308;2023-02-01T11:36:22;9.43;69.77
66582;SHT31;53438;48.898;2.308;2023-02-01T11:41:32;9.43;69.90
66582;SHT31;53438;48.898;2.308;2023-02-01T11:43:59;9.40;70.10
66582;SHT31;53438;48.898;2.308;2023-02-01T11:46:32;9.45;70.40
66582;SHT31;53438;48.898;2.308;2023-02-01T11:49:24;9.38;69.92
66582;SHT31;53438;48.898;2.308;2023-02-01T11:52:15;9.46;70.04
66582;SHT31;53438;48.898;2.308;2023-02-01T11:55:14;9.46;70.48
66582;SHT31;53438;48.898;2.308;2023-02-01T12:03:07;9.47;70.76
66582;SHT31;53438;48.898;2.308;2023-02-01T12:05:39;9.46;69.82
66582;SHT31;53438;48.898;2.308;2023-02-01T12:11:17;9.63;69.68
66582;SHT31;53438;48.898;2.308;2023-02-01T12:13:59;9.57;68.60
66582;SHT31;53438;48.898;2.308;2023-02-01T12:19:42;9.77;68.56
66582;SHT31;53438;48.898;2.308;2023-02-01T12:30:54;10.04;65.79
66582;SHT31;53438;48.898;2.308;2023-02-01T12:41:55;10.14;65.02
66582;SHT31;53438;48.898;2.308;2023-02-01T12:47:11;10.13;66.29
66582;SHT31;53438;48.898;2.308;2023-02-01T12:52:46;10.07;66.34
66582;SHT31;53438;48.898;2.308;2023-02-01T12:58:15;10.06;65.75
66582;SHT31;53438;48.898;2.308;2023-02-01T13:00:52;10.06;65.78
66582;SHT31;53438;48.898;2.308;2023-02-01T13:06:18;9.98;65.94
66582;SHT31;53438;48.898;2.308;2023-02-01T13:09:06;10.00;65.70
66582;SHT31;53438;48.898;2.308;2023-02-01T13:11:38;10.04;65.84
66582;SHT31;53438;48.898;2.308;2023-02-01T13:17:16;10.08;64.76
66582;SHT31;53438;48.898;2.308;2023-02-01T13:19:53;10.06;65.41
66582;SHT31;53438;48.898;2.308;2023-02-01T13:24:54;10.17;63.53
66582;SHT31;53438;48.898;2.308;2023-02-01T13:27:21;10.14;63.22
66582;SHT31;53438;48.898;2.308;2023-02-01T13:30:21;10.18;62.84
66582;SHT31;53438;48.898;2.308;2023-02-01T13:38:15;10.25;63.23
66582;SHT31;53438;48.898;2.308;2023-02-01T13:41:14;10.17;62.34
66582;SHT31;53438;48.898;2.308;2023-02-01T13:43:35;10.27;62.62
66582;SHT31;53438;48.898;2.308;2023-02-01T13:46:08;10.25;63.35
66582;SHT31;53438;48.898;2.308;2023-02-01T13:49:01;10.20;63.27
66582;SHT31;53438;48.898;2.308;2023-02-01T13:51:41;10.18;63.53
66582;SHT31;53438;48.898;2.308;2023-02-01T13:54:07;10.24;63.71
66582;SHT31;53438;48.898;2.308;2023-02-01T13:56:47;10.28;63.81
66582;SHT31;53438;48.898;2.308;2023-02-01T14:10:59;10.20;64.01
66582;SHT31;53438;48.898;2.308;2023-02-01T14:23:44;10.20;63.65
66582;SHT31;53438;48.898;2.308;2023-02-01T14:26:19;10.22;63.95
66582;SHT31;53438;48.898;2.308;2023-02-01T14:31:43;10.25;63.81
66582;SHT31;53438;48.898;2.308;2023-02-01T14:34:18;10.22;63.85
66582;SHT31;53438;48.898;2.308;2023-02-01T14:36:51;10.25;64.25
66582;SHT31;53438;48.898;2.308;2023-02-01T14:39:24;10.30;64.11
66582;SHT31;53438;48.898;2.308;2023-02-01T14:41:56;10.33;63.72
66582;SHT31;53438;48.898;2.308;2023-02-01T14:44:34;10.27;63.79
66582;SHT31;53438;48.898;2.308;2023-02-01T14:47:08;10.31;63.54
66582;SHT31;53438;48.898;2.308;2023-02-01T14:49:49;10.33;63.49
66582;SHT31;53438;48.898;2.308;2023-02-01T14:52:17;10.40;64.04
66582;SHT31;53438;48.898;2.308;2023-02-01T14:54:47;10.37;64.06
66582;SHT31;53438;48.898;2.308;2023-02-01T14:57:19;10.38;63.72
66582;SHT31;53438;48.898;2.308;2023-02-01T14:59:46;10.35;62.93
66582;SHT31;53438;48.898;2.308;2023-02-01T15:02:21;10.35;62.71
66582;SHT31;53438;48.898;2.308;2023-02-01T15:04:55;10.37;63.39
66582;SHT31;53438;48.898;2.308;2023-02-01T15:07:22;10.40;63.65
66582;SHT31;53438;48.898;2.308;2023-02-01T15:09:50;10.42;63.14
66582;SHT31;53438;48.898;2.308;2023-02-01T15:12:22;10.46;62.69
66582;SHT31;53438;48.898;2.308;2023-02-01T15:15:17;10.48;63.69
66582;SHT31;53438;48.898;2.308;2023-02-01T15:17:57;10.48;63.11
66582;SHT31;53438;48.898;2.308;2023-02-01T15:20:30;10.46;62.85
66582;SHT31;53438;48.898;2.308;2023-02-01T15:23:01;10.48;61.65
66582;SHT31;53438;48.898;2.308;2023-02-01T15:25:32;10.49;61.50
66582;SHT31;53438;48.898;2.308;2023-02-01T15:27:59;10.51;60.33
66582;SHT31;53438;48.898;2.308;2023-02-01T15:30:28;10.49;60.82
66582;SHT31;53438;48.898;2.308;2023-02-01T15:35:44;10.46;60.95
66582;SHT31;53438;48.898;2.308;2023-02-01T15:41:07;10.48;61.06
66582;SHT31;53438;48.898;2.308;2023-02-01T15:46:41;10.41;61.25
66582;SHT31;53438;48.898;2.308;2023-02-01T15:51:52;10.35;61.55
66582;SHT31;53438;48.898;2.308;2023-02-01T15:54:22;10.40;61.51
66582;SHT31;53438;48.898;2.308;2023-02-01T15:56:51;10.40;61.70
66582;SHT31;53438;48.898;2.308;2023-02-01T15:59:23;10.34;61.79
66582;SHT31;53438;48.898;2.308;2023-02-01T16:01:50;10.34;62.18
66582;SHT31;53438;48.898;2.308;2023-02-01T16:04:24;10.31;62.18
66582;SHT31;53438;48.898;2.308;2023-02-01T16:06:53;10.31;62.20
66582;SHT31;53438;48.898;2.308;2023-02-01T16:09:21;10.27;62.29
66582;SHT31;53438;48.898;2.308;2023-02-01T16:14:20;10.27;62.57
66582;SHT31;53438;48.898;2.308;2023-02-01T16:16:45;10.24;62.47
66582;SHT31;53438;48.898;2.308;2023-02-01T16:19:11;10.27;63.02
66582;SHT31;53438;48.898;2.308;2023-02-01T16:21:36;10.25;62.83
66582;SHT31;53438;48.898;2.308;2023-02-01T16:24:02;10.22;63.32
66582;SHT31;53438;48.898;2.308;2023-02-01T16:26:30;10.22;63.28
66582;SHT31;53438;48.898;2.308;2023-02-01T16:28:56;10.21;63.82
66582;SHT31;53438;48.898;2.308;2023-02-01T16:31:26;10.25;63.38
66582;SHT31;53438;48.898;2.308;2023-02-01T16:33:53;10.21;63.26
66582;SHT31;53438;48.898;2.308;2023-02-01T16:36:19;10.21;63.22
66582;SHT31;53438;48.898;2.308;2023-02-01T16:38:45;10.25;63.63
66582;SHT31;53438;48.898;2.308;2023-02-01T16:41:14;10.22;63.86
66582;SHT31;53438;48.898;2.308;2023-02-01T16:43:40;10.18;63.32
66582;SHT31;53438;48.898;2.308;2023-02-01T16:46:11;10.20;63.69
66582;SHT31;53438;48.898;2.308;2023-02-01T16:48:40;10.18;63.01
66582;SHT31;53438;48.898;2.308;2023-02-01T16:51:12;10.16;63.45
66582;SHT31;53438;48.898;2.308;2023-02-01T16:53:39;10.11;63.03
66582;SHT31;53438;48.898;2.308;2023-02-01T16:56:13;10.13;63.09
66582;SHT31;53438;48.898;2.308;2023-02-01T16:58:39;10.11;63.35
66582;SHT31;53438;48.898;2.308;2023-02-01T17:01:06;10.08;63.70
66582;SHT31;53438;48.898;2.308;2023-02-01T17:03:31;10.10;63.61
66582;SHT31;53438;48.898;2.308;2023-02-01T17:05:57;10.10;63.73
66582;SHT31;53438;48.898;2.308;2023-02-01T17:08:32;10.10;64.14
66582;SHT31;53438;48.898;2.308;2023-02-01T17:10:58;10.13;63.67
66582;SHT31;53438;48.898;2.308;2023-02-01T17:13:24;10.10;63.56
66582;SHT31;53438;48.898;2.308;2023-02-01T17:18:35;10.06;63.28
66582;SHT31;53438;48.898;2.308;2023-02-01T17:21:02;10.08;64.07
66582;SHT31;53438;48.898;2.308;2023-02-01T17:23:29;10.04;63.60
66582;SHT31;53438;48.898;2.308;2023-02-01T17:25:55;10.01;63.81
66582;SHT31;53438;48.898;2.308;2023-02-01T17:28:21;10.01;64.06
66582;SHT31;53438;48.898;2.308;2023-02-01T17:30:47;9.97;64.04
66582;SHT31;53438;48.898;2.308;2023-02-01T17:33:34;9.94;64.00
66582;SHT31;53438;48.898;2.308;2023-02-01T17:36:00;9.93;64.13
66582;SHT31;53438;48.898;2.308;2023-02-01T17:38:26;9.97;64.63
66582;SHT31;53438;48.898;2.308;2023-02-01T17:40:51;9.90;64.38
66582;SHT31;53438;48.898;2.308;2023-02-01T17:43:21;9.89;64.63
66582;SHT31;53438;48.898;2.308;2023-02-01T17:45:51;9.89;64.98
66582;SHT31;53438;48.898;2.308;2023-02-01T17:48:18;9.89;65.48
66582;SHT31;53438;48.898;2.308;2023-02-01T17:50:45;9.89;65.06
66582;SHT31;53438;48.898;2.308;2023-02-01T17:53:11;9.89;64.55
66582;SHT31;53438;48.898;2.308;2023-02-01T17:55:43;9.85;64.45
66582;SHT31;53438;48.898;2.308;2023-02-01T17:58:12;9.85;64.31
66582;SHT31;53438;48.898;2.308;2023-02-01T18:00:39;9.86;64.41
66582;SHT31;53438;48.898;2.308;2023-02-01T18:03:08;9.80;64.45
66582;SHT31;53438;48.898;2.308;2023-02-01T18:05:41;9.79;64.27
66582;SHT31;53438;48.898;2.308;2023-02-01T18:08:08;9.83;64.59
66582;SHT31;53438;48.898;2.308;2023-02-01T18:10:34;9.82;65.02
66582;SHT31;53438;48.898;2.308;2023-02-01T18:13:03;9.79;64.27
66582;SHT31;53438;48.898;2.308;2023-02-01T18:15:31;9.80;64.61
66582;SHT31;53438;48.898;2.308;2023-02-01T18:17:57;9.80;64.24
66582;SHT31;53438;48.898;2.308;2023-02-01T18:20:24;9.77;64.29
66582;SHT31;53438;48.898;2.308;2023-02-01T18:22:51;9.76;64.88
66582;SHT31;53438;48.898;2.308;2023-02-01T18:25:21;9.76;65.02
66582;SHT31;53438;48.898;2.308;2023-02-01T18:27:48;9.76;65.28
66582;SHT31;53438;48.898;2.308;2023-02-01T18:30:14;9.70;64.79
66582;SHT31;53438;48.898;2.308;2023-02-01T18:32:40;9.70;65.14
66582;SHT31;53438;48.898;2.308;2023-02-01T18:35:20;9.69;64.69
66582;SHT31;53438;48.898;2.308;2023-02-01T18:37:47;9.80;65.31
66582;SHT31;53438;48.898;2.308;2023-02-01T18:40:14;9.73;65.70
66582;SHT31;53438;48.898;2.308;2023-02-01T18:42:40;9.66;65.32
66582;SHT31;53438;48.898;2.308;2023-02-01T18:45:19;9.66;65.56
66582;SHT31;53438;48.898;2.308;2023-02-01T18:47:45;9.65;65.35
66582;SHT31;53438;48.898;2.308;2023-02-01T18:50:11;9.67;65.76
66582;SHT31;53438;48.898;2.308;2023-02-01T18:52:37;9.66;66.21
66582;SHT31;53438;48.898;2.308;2023-02-01T18:55:03;9.66;66.21
66582;SHT31;53438;48.898;2.308;2023-02-01T18:57:28;9.66;65.70
66582;SHT31;53438;48.898;2.308;2023-02-01T18:59:53;9.66;65.54
66582;SHT31;53438;48.898;2.308;2023-02-01T19:02:19;9.65;65.88
66582;SHT31;53438;48.898;2.308;2023-02-01T19:04:45;9.66;65.76
66582;SHT31;53438;48.898;2.308;2023-02-01T19:07:10;9.66;66.07
66582;SHT31;53438;48.898;2.308;2023-02-01T19:09:36;9.65;65.98
66582;SHT31;53438;48.898;2.308;2023-02-01T19:12:01;9.66;66.62
66582;SHT31;53438;48.898;2.308;2023-02-01T19:14:27;9.67;65.98
66582;SHT31;53438;48.898;2.308;2023-02-01T19:16:52;9.59;65.92
66582;SHT31;53438;48.898;2.308;2023-02-01T19:19:19;9.65;66.70
66582;SHT31;53438;48.898;2.308;2023-02-01T19:21:44;9.62;66.42
66582;SHT31;53438;48.898;2.308;2023-02-01T19:24:09;9.57;66.43
66582;SHT31;53438;48.898;2.308;2023-02-01T19:26:35;9.55;66.70
66582;SHT31;53438;48.898;2.308;2023-02-01T19:29:00;9.52;66.33
66582;SHT31;53438;48.898;2.308;2023-02-01T19:31:26;9.47;66.69
66582;SHT31;53438;48.898;2.308;2023-02-01T19:33:51;9.50;66.72
66582;SHT31;53438;48.898;2.308;2023-02-01T19:36:16;9.55;67.13
66582;SHT31;53438;48.898;2.308;2023-02-01T19:38:42;9.53;67.02
66582;SHT31;53438;48.898;2.308;2023-02-01T19:41:07;9.52;67.29
66582;SHT31;53438;48.898;2.308;2023-02-01T19:43:33;9.55;67.43
66582;SHT31;53438;48.898;2.308;2023-02-01T19:45:59;9.53;67.56
66582;SHT31;53438;48.898;2.308;2023-02-01T19:48:27;9.47;67.03
66582;SHT31;53438;48.898;2.308;2023-02-01T19:50:54;9.42;67.23
66582;SHT31;53438;48.898;2.308;2023-02-01T19:53:23;9.38;67.24
66582;SHT31;53438;48.898;2.308;2023-02-01T19:55:56;9.39;67.22
66582;SHT31;53438;48.898;2.308;2023-02-01T19:58:23;9.39;67.71
66582;SHT31;53438;48.898;2.308;2023-02-01T20:00:52;9.42;67.38
66582;SHT31;53438;48.898;2.308;2023-02-01T20:03:18;9.40;67.36
66582;SHT31;53438;48.898;2.308;2023-02-01T20:05:44;9.39;67.25
66582;SHT31;53438;48.898;2.308;2023-02-01T20:08:09;9.39;67.68
66582;SHT31;53438;48.898;2.308;2023-02-01T20:10:34;9.39;67.21
66582;SHT31;53438;48.898;2.308;2023-02-01T20:13:00;9.42;67.45
66582;SHT31;53438;48.898;2.308;2023-02-01T20:15:26;9.40;67.16
66582;SHT31;53438;48.898;2.308;2023-02-01T20:17:52;9.42;67.25
66582;SHT31;53438;48.898;2.308;2023-02-01T20:20:18;9.38;67.11
66582;SHT31;53438;48.898;2.308;2023-02-01T20:22:43;9.40;67.32
66582;SHT31;53438;48.898;2.308;2023-02-01T20:25:10;9.42;67.47
66582;SHT31;53438;48.898;2.308;2023-02-01T20:27:36;9.42;67.40
66582;SHT31;53438;48.898;2.308;2023-02-01T20:30:01;9.42;67.56
66582;SHT31;53438;48.898;2.308;2023-02-01T20:32:27;9.42;67.18
66582;SHT31;53438;48.898;2.308;2023-02-01T20:34:52;9.43;67.59
66582;SHT31;53438;48.898;2.308;2023-02-01T20:37:19;9.43;67.21
66582;SHT31;53438;48.898;2.308;2023-02-01T20:39:44;9.40;67.58
66582;SHT31;53438;48.898;2.308;2023-02-01T20:42:10;9.43;67.15
66582;SHT31;53438;48.898;2.308;2023-02-01T20:44:35;9.42;67.10
66582;SHT31;53438;48.898;2.308;2023-02-01T20:47:00;9.42;67.46
66582;SHT31;53438;48.898;2.308;2023-02-01T20:49:29;9.40;67.20
66582;SHT31;53438;48.898;2.308;2023-02-01T20:51:54;9.39;67.31